sensor_id;sensor_type;location;lat;lon;timestamp;P1;durP1;ratioP1;P2;durP2;ratioP2
23676;SDS011;31493;49.058;12.190;2023-08-20T00:01:34;6.13;;;4.20;;
23676;SDS011;31493;49.058;12.190;2023-08-20T00:04:03;6.32;;;4.60;;
23676;SDS011;31493;49.058;12.190;2023-08-20T00:06:31;6.10;;;4.90;;
23676;SDS011;31493;49.058;12.190;2023-08-20T00:08:58;9.37;;;5.70;;
23676;SDS011;31493;49.058;12.190;2023-08-20T00:11:26;6.60;;;4.53;;
23676;SDS011;31493;49.058;12.190;2023-08-20T00:13:53;7.70;;;4.43;;
23676;SDS011;31493;49.058;12.190;2023-08-20T00:16:20;5.25;;;4.13;;
23676;SDS011;31493;49.058;12.190;2023-08-20T00:18:47;4.68;;;3.83;;
23676;SDS011;31493;49.058;12.190;2023-08-20T00:21:16;8.95;;;4.28;;
23676;SDS011;31493;49.058;12.190;2023-08-20T00:26:10;5.93;;;4.10;;
23676;SDS011;31493;49.058;12.190;2023-08-20T00:28:38;6.03;;;4.60;;
23676;SDS011;31493;49.058;12.190;2023-08-20T00:31:05;8.13;;;3.92;;
23676;SDS011;31493;49.058;12.190;2023-08-20T00:33:32;7.88;;;4.00;;
23676;SDS011;31493;49.058;12.190;2023-08-20T00:35:59;4.95;;;3.90;;
23676;SDS011;31493;49.058;12.190;2023-08-20T00:38:28;5.53;;;4.07;;
23676;SDS011;31493;49.058;12.190;2023-08-20T00:40:55;7.03;;;3.92;;
23676;SDS011;31493;49.058;12.190;2023-08-20T00:43:22;6.47;;;3.88;;
23676;SDS011;31493;49.058;12.190;2023-08-20T00:45:49;5.97;;;4.25;;
23676;SDS011;31493;49.058;12.190;2023-08-20T00:48:16;4.88;;;3.55;;
23676;SDS011;31493;49.058;12.190;2023-08-20T00:50:43;5.10;;;3.88;;
23676;SDS011;31493;49.058;12.190;2023-08-20T00:53:11;5.65;;;3.88;;
23676;SDS011;31493;49.058;12.190;2023-08-20T00:55:41;4.88;;;3.85;;
23676;SDS011;31493;49.058;12.190;2023-08-20T00:58:09;10.75;;;3.95;;
23676;SDS011;31493;49.058;12.190;2023-08-20T01:00:37;6.50;;;3.80;;
23676;SDS011;31493;49.058;12.190;2023-08-20T01:03:04;5.68;;;3.80;;
23676;SDS011;31493;49.058;12.190;2023-08-20T01:05:32;4.65;;;3.60;;
23676;SDS011;31493;49.058;12.190;2023-08-20T01:08:09;3.88;;;3.50;;
23676;SDS011;31493;49.058;12.190;2023-08-20T01:10:50;5.82;;;3.80;;
23676;SDS011;31493;49.058;12.190;2023-08-20T01:13:20;6.45;;;3.85;;
23676;SDS011;31493;49.058;12.190;2023-08-20T01:15:47;6.47;;;3.80;;
23676;SDS011;31493;49.058;12.190;2023-08-20T01:18:14;5.15;;;3.72;;
23676;SDS011;31493;49.058;12.190;2023-08-20T01:20:50;6.03;;;3.70;;
23676;SDS011;31493;49.058;12.190;2023-08-20T01:26:31;7.07;;;3.95;;
23676;SDS011;31493;49.058;12.190;2023-08-20T01:29:08;8.00;;;3.53;;
23676;SDS011;31493;49.058;12.190;2023-08-20T01:31:37;5.78;;;4.40;;
23676;SDS011;31493;49.058;12.190;2023-08-20T01:34:05;7.57;;;4.15;;
23676;SDS011;31493;49.058;12.190;2023-08-20T01:36:32;6.57;;;4.78;;
23676;SDS011;31493;49.058;12.190;2023-08-20T01:38:59;7.25;;;4.13;;
23676;SDS011;31493;49.058;12.190;2023-08-20T01:41:26;6.03;;;4.30;;
23676;SDS011;31493;49.058;12.190;2023-08-20T01:43:53;6.65;;;4.10;;
23676;SDS011;31493;49.058;12.190;2023-08-20T01:46:21;8.35;;;4.40;;
23676;SDS011;31493;49.058;12.190;2023-08-20T01:48:48;7.18;;;4.78;;
23676;SDS011;31493;49.058;12.190;2023-08-20T01:51:15;5.18;;;4.53;;
23676;SDS011;31493;49.058;12.190;2023-08-20T01:53:42;6.72;;;5.07;;
23676;SDS011;31493;49.058;12.190;2023-08-20T01:56:12;6.45;;;4.68;;
23676;SDS011;31493;49.058;12.190;2023-08-20T01:58:40;9.48;;;5.20;;
23676;SDS011;31493;49.058;12.190;2023-08-20T02:01:07;4.78;;;4.35;;
23676;SDS011;31493;49.058;12.190;2023-08-20T02:03:36;7.90;;;4.63;;
23676;SDS011;31493;49.058;12.190;2023-08-20T02:06:03;6.95;;;4.57;;
23676;SDS011;31493;49.058;12.190;2023-08-20T02:08:30;7.93;;;4.50;;
23676;SDS011;31493;49.058;12.190;2023-08-20T02:11:00;5.57;;;4.55;;
23676;SDS011;31493;49.058;12.190;2023-08-20T02:13:28;6.55;;;4.88;;
23676;SDS011;31493;49.058;12.190;2023-08-20T02:15:59;5.97;;;4.68;;
23676;SDS011;31493;49.058;12.190;2023-08-20T02:18:26;4.60;;;4.15;;
23676;SDS011;31493;49.058;12.190;2023-08-20T02:20:55;6.55;;;4.53;;
23676;SDS011;31493;49.058;12.190;2023-08-20T02:25:50;5.63;;;4.95;;
23676;SDS011;31493;49.058;12.190;2023-08-20T02:28:17;6.50;;;4.80;;
23676;SDS011;31493;49.058;12.190;2023-08-20T02:30:44;7.57;;;4.82;;
23676;SDS011;31493;49.058;12.190;2023-08-20T02:33:12;9.80;;;5.80;;
23676;SDS011;31493;49.058;12.190;2023-08-20T02:35:39;7.90;;;5.65;;
23676;SDS011;31493;49.058;12.190;2023-08-20T02:38:08;8.80;;;5.90;;
23676;SDS011;31493;49.058;12.190;2023-08-20T02:40:39;10.07;;;5.50;;
23676;SDS011;31493;49.058;12.190;2023-08-20T02:43:06;8.98;;;5.82;;
23676;SDS011;31493;49.058;12.190;2023-08-20T02:45:38;6.00;;;5.25;;
23676;SDS011;31493;49.058;12.190;2023-08-20T02:48:06;8.35;;;5.47;;
23676;SDS011;31493;49.058;12.190;2023-08-20T02:50:33;6.50;;;5.10;;
23676;SDS011;31493;49.058;12.190;2023-08-20T02:53:00;8.38;;;5.82;;
23676;SDS011;31493;49.058;12.190;2023-08-20T02:55:30;6.63;;;5.78;;
23676;SDS011;31493;49.058;12.190;2023-08-20T02:57:57;11.00;;;5.97;;
23676;SDS011;31493;49.058;12.190;2023-08-20T03:00:24;11.80;;;6.18;;
23676;SDS011;31493;49.058;12.190;2023-08-20T03:02:51;7.90;;;5.82;;
23676;SDS011;31493;49.058;12.190;2023-08-20T03:05:18;7.20;;;6.50;;
23676;SDS011;31493;49.058;12.190;2023-08-20T03:07:45;9.77;;;5.80;;
23676;SDS011;31493;49.058;12.190;2023-08-20T03:10:13;9.52;;;5.63;;
23676;SDS011;31493;49.058;12.190;2023-08-20T03:12:41;6.10;;;5.50;;
23676;SDS011;31493;49.058;12.190;2023-08-20T03:15:08;7.82;;;6.40;;
23676;SDS011;31493;49.058;12.190;2023-08-20T03:17:35;7.00;;;6.30;;
23676;SDS011;31493;49.058;12.190;2023-08-20T03:20:02;11.68;;;7.38;;
23676;SDS011;31493;49.058;12.190;2023-08-20T03:22:31;10.18;;;8.10;;
23676;SDS011;31493;49.058;12.190;2023-08-20T03:24:59;12.18;;;8.50;;
23676;SDS011;31493;49.058;12.190;2023-08-20T03:27:26;12.63;;;8.93;;
23676;SDS011;31493;49.058;12.190;2023-08-20T03:29:54;13.13;;;7.80;;
23676;SDS011;31493;49.058;12.190;2023-08-20T03:32:22;11.73;;;8.18;;
23676;SDS011;31493;49.058;12.190;2023-08-20T03:34:49;13.30;;;9.15;;
23676;SDS011;31493;49.058;12.190;2023-08-20T03:37:18;15.38;;;9.73;;
23676;SDS011;31493;49.058;12.190;2023-08-20T03:39:45;11.35;;;9.23;;
23676;SDS011;31493;49.058;12.190;2023-08-20T03:42:12;12.55;;;8.77;;
23676;SDS011;31493;49.058;12.190;2023-08-20T03:44:40;17.23;;;9.25;;
23676;SDS011;31493;49.058;12.190;2023-08-20T03:47:08;10.23;;;8.43;;
23676;SDS011;31493;49.058;12.190;2023-08-20T03:52:02;11.60;;;8.07;;
23676;SDS011;31493;49.058;12.190;2023-08-20T03:54:32;11.55;;;8.50;;
23676;SDS011;31493;49.058;12.190;2023-08-20T03:56:59;14.18;;;8.63;;
23676;SDS011;31493;49.058;12.190;2023-08-20T03:59:26;11.95;;;8.05;;
23676;SDS011;31493;49.058;12.190;2023-08-20T04:01:53;10.70;;;8.20;;
23676;SDS011;31493;49.058;12.190;2023-08-20T04:04:21;10.07;;;8.10;;
23676;SDS011;31493;49.058;12.190;2023-08-20T04:06:49;10.82;;;8.20;;
23676;SDS011;31493;49.058;12.190;2023-08-20T04:09:16;12.38;;;8.30;;
23676;SDS011;31493;49.058;12.190;2023-08-20T04:11:43;10.57;;;7.90;;
23676;SDS011;31493;49.058;12.190;2023-08-20T04:14:10;11.07;;;7.50;;
23676;SDS011;31493;49.058;12.190;2023-08-20T04:16:37;11.75;;;7.43;;
23676;SDS011;31493;49.058;12.190;2023-08-20T04:19:04;11.18;;;6.93;;
23676;SDS011;31493;49.058;12.190;2023-08-20T04:21:33;10.10;;;6.95;;
23676;SDS011;31493;49.058;12.190;2023-08-20T04:24:00;8.15;;;6.97;;
23676;SDS011;31493;49.058;12.190;2023-08-20T04:26:27;9.57;;;7.00;;
23676;SDS011;31493;49.058;12.190;2023-08-20T04:28:54;9.20;;;6.15;;
23676;SDS011;31493;49.058;12.190;2023-08-20T04:31:21;9.43;;;5.95;;
23676;SDS011;31493;49.058;12.190;2023-08-20T04:33:48;6.80;;;6.00;;
23676;SDS011;31493;49.058;12.190;2023-08-20T04:36:15;9.73;;;6.38;;
23676;SDS011;31493;49.058;12.190;2023-08-20T04:38:44;7.45;;;6.10;;
23676;SDS011;31493;49.058;12.190;2023-08-20T04:41:11;6.90;;;6.20;;
23676;SDS011;31493;49.058;12.190;2023-08-20T04:43:38;6.60;;;6.00;;
23676;SDS011;31493;49.058;12.190;2023-08-20T04:46:05;8.70;;;6.07;;
23676;SDS011;31493;49.058;12.190;2023-08-20T04:48:32;8.93;;;6.00;;
23676;SDS011;31493;49.058;12.190;2023-08-20T04:50:59;7.07;;;6.35;;
23676;SDS011;31493;49.058;12.190;2023-08-20T04:53:26;10.05;;;5.80;;
23676;SDS011;31493;49.058;12.190;2023-08-20T04:55:54;7.00;;;6.30;;
23676;SDS011;31493;49.058;12.190;2023-08-20T04:58:21;8.15;;;6.97;;
23676;SDS011;31493;49.058;12.190;2023-08-20T05:00:48;12.57;;;6.38;;
23676;SDS011;31493;49.058;12.190;2023-08-20T05:03:15;7.47;;;6.15;;
23676;SDS011;31493;49.058;12.190;2023-08-20T05:05:47;7.63;;;6.53;;
23676;SDS011;31493;49.058;12.190;2023-08-20T05:08:15;6.65;;;6.03;;
23676;SDS011;31493;49.058;12.190;2023-08-20T05:10:42;8.90;;;6.95;;
23676;SDS011;31493;49.058;12.190;2023-08-20T05:13:11;8.43;;;7.10;;
23676;SDS011;31493;49.058;12.190;2023-08-20T05:15:38;8.90;;;8.00;;
23676;SDS011;31493;49.058;12.190;2023-08-20T05:18:05;9.38;;;8.35;;
23676;SDS011;31493;49.058;12.190;2023-08-20T05:20:32;8.63;;;7.80;;
23676;SDS011;31493;49.058;12.190;2023-08-20T05:22:59;7.88;;;7.15;;
23676;SDS011;31493;49.058;12.190;2023-08-20T05:25:26;9.18;;;7.28;;
23676;SDS011;31493;49.058;12.190;2023-08-20T05:27:53;10.10;;;7.60;;
23676;SDS011;31493;49.058;12.190;2023-08-20T05:30:21;8.88;;;7.10;;
23676;SDS011;31493;49.058;12.190;2023-08-20T05:32:48;7.55;;;6.75;;
23676;SDS011;31493;49.058;12.190;2023-08-20T05:35:15;10.95;;;6.75;;
23676;SDS011;31493;49.058;12.190;2023-08-20T05:37:42;8.88;;;7.25;;
23676;SDS011;31493;49.058;12.190;2023-08-20T05:40:09;8.18;;;6.88;;
23676;SDS011;31493;49.058;12.190;2023-08-20T05:42:37;8.02;;;7.03;;
23676;SDS011;31493;49.058;12.190;2023-08-20T05:45:04;9.63;;;7.05;;
23676;SDS011;31493;49.058;12.190;2023-08-20T05:47:33;8.95;;;7.60;;
23676;SDS011;31493;49.058;12.190;2023-08-20T05:50:00;8.05;;;6.75;;
23676;SDS011;31493;49.058;12.190;2023-08-20T05:52:27;10.00;;;7.00;;
23676;SDS011;31493;49.058;12.190;2023-08-20T05:54:54;7.43;;;6.65;;
23676;SDS011;31493;49.058;12.190;2023-08-20T05:57:21;9.57;;;6.78;;
23676;SDS011;31493;49.058;12.190;2023-08-20T05:59:48;7.82;;;6.85;;
23676;SDS011;31493;49.058;12.190;2023-08-20T06:02:16;9.68;;;6.30;;
23676;SDS011;31493;49.058;12.190;2023-08-20T06:04:45;11.02;;;5.90;;
23676;SDS011;31493;49.058;12.190;2023-08-20T06:07:12;10.05;;;6.78;;
23676;SDS011;31493;49.058;12.190;2023-08-20T06:09:39;11.02;;;6.95;;
23676;SDS011;31493;49.058;12.190;2023-08-20T06:12:06;8.60;;;5.85;;
23676;SDS011;31493;49.058;12.190;2023-08-20T06:14:33;8.32;;;6.40;;
23676;SDS011;31493;49.058;12.190;2023-08-20T06:17:00;7.30;;;6.18;;
23676;SDS011;31493;49.058;12.190;2023-08-20T06:19:28;8.27;;;5.97;;
23676;SDS011;31493;49.058;12.190;2023-08-20T06:21:56;8.65;;;6.28;;
23676;SDS011;31493;49.058;12.190;2023-08-20T06:24:23;7.10;;;6.40;;
23676;SDS011;31493;49.058;12.190;2023-08-20T06:26:50;7.90;;;6.32;;
23676;SDS011;31493;49.058;12.190;2023-08-20T06:29:18;9.40;;;6.32;;
23676;SDS011;31493;49.058;12.190;2023-08-20T06:31:47;7.85;;;6.38;;
23676;SDS011;31493;49.058;12.190;2023-08-20T06:34:14;7.97;;;7.18;;
23676;SDS011;31493;49.058;12.190;2023-08-20T06:36:41;8.10;;;6.70;;
23676;SDS011;31493;49.058;12.190;2023-08-20T06:39:10;9.93;;;6.90;;
23676;SDS011;31493;49.058;12.190;2023-08-20T06:41:37;9.07;;;6.85;;
23676;SDS011;31493;49.058;12.190;2023-08-20T06:44:04;9.02;;;6.72;;
23676;SDS011;31493;49.058;12.190;2023-08-20T06:46:31;9.10;;;7.20;;
23676;SDS011;31493;49.058;12.190;2023-08-20T06:48:59;8.18;;;6.70;;
23676;SDS011;31493;49.058;12.190;2023-08-20T06:51:26;7.10;;;6.50;;
23676;SDS011;31493;49.058;12.190;2023-08-20T06:53:53;7.27;;;6.50;;
23676;SDS011;31493;49.058;12.190;2023-08-20T06:56:23;9.68;;;6.40;;
23676;SDS011;31493;49.058;12.190;2023-08-20T06:58:50;10.98;;;6.88;;
23676;SDS011;31493;49.058;12.190;2023-08-20T07:01:17;7.78;;;6.38;;
23676;SDS011;31493;49.058;12.190;2023-08-20T07:03:44;8.95;;;6.03;;
23676;SDS011;31493;49.058;12.190;2023-08-20T07:06:11;8.82;;;6.40;;
23676;SDS011;31493;49.058;12.190;2023-08-20T07:08:39;6.97;;;6.28;;
23676;SDS011;31493;49.058;12.190;2023-08-20T07:11:07;8.73;;;6.32;;
23676;SDS011;31493;49.058;12.190;2023-08-20T07:13:35;7.18;;;6.47;;
23676;SDS011;31493;49.058;12.190;2023-08-20T07:16:02;15.40;;;6.50;;
23676;SDS011;31493;49.058;12.190;2023-08-20T07:18:30;8.43;;;6.40;;
23676;SDS011;31493;49.058;12.190;2023-08-20T07:20:57;9.30;;;6.40;;
23676;SDS011;31493;49.058;12.190;2023-08-20T07:23:24;7.60;;;5.80;;
23676;SDS011;31493;49.058;12.190;2023-08-20T07:25:51;11.10;;;6.40;;
23676;SDS011;31493;49.058;12.190;2023-08-20T07:28:18;6.60;;;6.00;;
23676;SDS011;31493;49.058;12.190;2023-08-20T07:31:07;7.63;;;6.10;;
23676;SDS011;31493;49.058;12.190;2023-08-20T07:33:34;8.70;;;6.13;;
23676;SDS011;31493;49.058;12.190;2023-08-20T07:36:01;7.45;;;5.90;;
23676;SDS011;31493;49.058;12.190;2023-08-20T07:38:28;7.97;;;6.30;;
23676;SDS011;31493;49.058;12.190;2023-08-20T07:40:55;7.72;;;5.82;;
23676;SDS011;31493;49.058;12.190;2023-08-20T07:43:23;9.90;;;6.20;;
23676;SDS011;31493;49.058;12.190;2023-08-20T07:48:19;6.78;;;6.07;;
23676;SDS011;31493;49.058;12.190;2023-08-20T07:50:46;6.95;;;6.25;;
23676;SDS011;31493;49.058;12.190;2023-08-20T07:53:13;6.47;;;5.68;;
23676;SDS011;31493;49.058;12.190;2023-08-20T07:55:40;9.45;;;5.80;;
23676;SDS011;31493;49.058;12.190;2023-08-20T07:58:07;6.82;;;6.07;;
23676;SDS011;31493;49.058;12.190;2023-08-20T08:00:34;5.68;;;5.10;;
23676;SDS011;31493;49.058;12.190;2023-08-20T08:03:01;9.10;;;5.78;;
23676;SDS011;31493;49.058;12.190;2023-08-20T08:05:30;6.88;;;5.60;;
23676;SDS011;31493;49.058;12.190;2023-08-20T08:07:57;6.88;;;5.68;;
23676;SDS011;31493;49.058;12.190;2023-08-20T08:10:24;6.57;;;5.97;;
23676;SDS011;31493;49.058;12.190;2023-08-20T08:12:51;7.78;;;5.65;;
23676;SDS011;31493;49.058;12.190;2023-08-20T08:15:18;6.63;;;5.70;;
23676;SDS011;31493;49.058;12.190;2023-08-20T08:17:45;7.15;;;5.35;;
23676;SDS011;31493;49.058;12.190;2023-08-20T08:20:12;8.85;;;5.50;;
23676;SDS011;31493;49.058;12.190;2023-08-20T08:22:41;5.97;;;5.43;;
23676;SDS011;31493;49.058;12.190;2023-08-20T08:25:08;6.03;;;5.22;;
23676;SDS011;31493;49.058;12.190;2023-08-20T08:27:35;8.63;;;5.50;;
23676;SDS011;31493;49.058;12.190;2023-08-20T08:30:02;6.68;;;5.55;;
23676;SDS011;31493;49.058;12.190;2023-08-20T08:32:29;6.28;;;5.30;;
23676;SDS011;31493;49.058;12.190;2023-08-20T08:34:56;8.27;;;5.63;;
23676;SDS011;31493;49.058;12.190;2023-08-20T08:37:23;5.82;;;5.00;;
23676;SDS011;31493;49.058;12.190;2023-08-20T08:39:52;7.32;;;5.10;;
23676;SDS011;31493;49.058;12.190;2023-08-20T08:42:18;5.60;;;5.10;;
23676;SDS011;31493;49.058;12.190;2023-08-20T08:44:50;6.82;;;4.88;;
23676;SDS011;31493;49.058;12.190;2023-08-20T08:47:17;6.93;;;5.25;;
23676;SDS011;31493;49.058;12.190;2023-08-20T08:49:45;11.40;;;5.30;;
23676;SDS011;31493;49.058;12.190;2023-08-20T08:52:13;7.05;;;5.22;;
23676;SDS011;31493;49.058;12.190;2023-08-20T08:54:40;8.75;;;5.18;;
23676;SDS011;31493;49.058;12.190;2023-08-20T08:57:09;6.28;;;4.90;;
23676;SDS011;31493;49.058;12.190;2023-08-20T08:59:36;6.95;;;4.78;;
23676;SDS011;31493;49.058;12.190;2023-08-20T09:02:05;5.93;;;4.95;;
23676;SDS011;31493;49.058;12.190;2023-08-20T09:04:34;7.57;;;5.03;;
23676;SDS011;31493;49.058;12.190;2023-08-20T09:07:05;5.13;;;4.63;;
23676;SDS011;31493;49.058;12.190;2023-08-20T09:09:32;5.38;;;4.88;;
23676;SDS011;31493;49.058;12.190;2023-08-20T09:11:59;8.45;;;5.63;;
23676;SDS011;31493;49.058;12.190;2023-08-20T09:14:28;9.98;;;5.50;;
23676;SDS011;31493;49.058;12.190;2023-08-20T09:16:57;7.97;;;4.85;;
23676;SDS011;31493;49.058;12.190;2023-08-20T09:19:25;6.30;;;4.75;;
23676;SDS011;31493;49.058;12.190;2023-08-20T09:21:55;6.32;;;4.63;;
23676;SDS011;31493;49.058;12.190;2023-08-20T09:24:32;7.07;;;4.75;;
23676;SDS011;31493;49.058;12.190;2023-08-20T09:27:02;11.52;;;5.18;;
23676;SDS011;31493;49.058;12.190;2023-08-20T09:29:33;7.45;;;4.40;;
23676;SDS011;31493;49.058;12.190;2023-08-20T09:32:01;7.32;;;4.90;;
23676;SDS011;31493;49.058;12.190;2023-08-20T09:37:15;6.90;;;5.20;;
23676;SDS011;31493;49.058;12.190;2023-08-20T09:42:10;7.05;;;4.53;;
23676;SDS011;31493;49.058;12.190;2023-08-20T09:44:39;5.20;;;4.70;;
23676;SDS011;31493;49.058;12.190;2023-08-20T09:47:08;8.45;;;5.00;;
23676;SDS011;31493;49.058;12.190;2023-08-20T09:52:04;8.75;;;5.13;;
23676;SDS011;31493;49.058;12.190;2023-08-20T09:54:39;7.82;;;4.82;;
23676;SDS011;31493;49.058;12.190;2023-08-20T09:57:19;10.00;;;4.90;;
23676;SDS011;31493;49.058;12.190;2023-08-20T09:59:54;6.22;;;4.80;;
23676;SDS011;31493;49.058;12.190;2023-08-20T10:02:22;9.48;;;4.80;;
23676;SDS011;31493;49.058;12.190;2023-08-20T10:07:18;6.32;;;4.93;;
23676;SDS011;31493;49.058;12.190;2023-08-20T10:09:45;7.57;;;4.60;;
23676;SDS011;31493;49.058;12.190;2023-08-20T10:12:13;6.38;;;5.18;;
23676;SDS011;31493;49.058;12.190;2023-08-20T10:14:40;6.85;;;4.65;;
23676;SDS011;31493;49.058;12.190;2023-08-20T10:17:09;9.93;;;4.80;;
23676;SDS011;31493;49.058;12.190;2023-08-20T10:19:40;6.78;;;4.90;;
23676;SDS011;31493;49.058;12.190;2023-08-20T10:22:08;6.35;;;4.50;;
23676;SDS011;31493;49.058;12.190;2023-08-20T10:24:39;7.30;;;4.90;;
23676;SDS011;31493;49.058;12.190;2023-08-20T10:27:08;6.80;;;5.10;;
23676;SDS011;31493;49.058;12.190;2023-08-20T10:29:36;6.72;;;5.05;;
23676;SDS011;31493;49.058;12.190;2023-08-20T10:32:05;8.13;;;4.70;;
23676;SDS011;31493;49.058;12.190;2023-08-20T10:34:36;5.20;;;4.68;;
23676;SDS011;31493;49.058;12.190;2023-08-20T10:37:12;8.55;;;5.15;;
23676;SDS011;31493;49.058;12.190;2023-08-20T10:39:39;6.00;;;5.38;;
23676;SDS011;31493;49.058;12.190;2023-08-20T10:42:08;8.73;;;5.13;;
23676;SDS011;31493;49.058;12.190;2023-08-20T10:47:26;7.00;;;5.15;;
23676;SDS011;31493;49.058;12.190;2023-08-20T10:50:04;9.88;;;5.10;;
23676;SDS011;31493;49.058;12.190;2023-08-20T10:52:33;7.25;;;5.30;;
23676;SDS011;31493;49.058;12.190;2023-08-20T10:55:06;9.82;;;5.20;;
23676;SDS011;31493;49.058;12.190;2023-08-20T11:00:01;9.07;;;5.30;;
23676;SDS011;31493;49.058;12.190;2023-08-20T11:02:37;9.20;;;5.85;;
23676;SDS011;31493;49.058;12.190;2023-08-20T11:05:09;8.43;;;5.25;;
23676;SDS011;31493;49.058;12.190;2023-08-20T11:07:43;7.15;;;5.40;;
23676;SDS011;31493;49.058;12.190;2023-08-20T11:10:12;8.10;;;6.00;;
23676;SDS011;31493;49.058;12.190;2023-08-20T11:12:40;7.70;;;5.35;;
23676;SDS011;31493;49.058;12.190;2023-08-20T11:15:08;7.90;;;5.30;;
23676;SDS011;31493;49.058;12.190;2023-08-20T11:17:39;9.23;;;5.40;;
23676;SDS011;31493;49.058;12.190;2023-08-20T11:20:08;9.10;;;5.80;;
23676;SDS011;31493;49.058;12.190;2023-08-20T11:22:38;11.00;;;6.07;;
23676;SDS011;31493;49.058;12.190;2023-08-20T11:25:05;13.47;;;6.07;;
23676;SDS011;31493;49.058;12.190;2023-08-20T11:27:33;6.15;;;5.38;;
23676;SDS011;31493;49.058;12.190;2023-08-20T11:30:00;7.90;;;5.50;;
23676;SDS011;31493;49.058;12.190;2023-08-20T11:32:30;6.22;;;5.15;;
23676;SDS011;31493;49.058;12.190;2023-08-20T11:34:57;8.47;;;5.40;;
23676;SDS011;31493;49.058;12.190;2023-08-20T11:37:26;8.88;;;5.20;;
23676;SDS011;31493;49.058;12.190;2023-08-20T11:39:53;7.35;;;5.32;;
23676;SDS011;31493;49.058;12.190;2023-08-20T11:42:21;8.23;;;5.57;;
23676;SDS011;31493;49.058;12.190;2023-08-20T11:44:49;5.95;;;5.10;;
23676;SDS011;31493;49.058;12.190;2023-08-20T11:47:16;7.72;;;5.10;;
23676;SDS011;31493;49.058;12.190;2023-08-20T11:49:44;6.37;;;4.80;;
23676;SDS011;31493;49.058;12.190;2023-08-20T11:52:11;7.38;;;5.00;;
23676;SDS011;31493;49.058;12.190;2023-08-20T11:54:41;7.30;;;5.13;;
23676;SDS011;31493;49.058;12.190;2023-08-20T11:57:08;6.85;;;5.47;;
23676;SDS011;31493;49.058;12.190;2023-08-20T11:59:35;6.70;;;5.40;;
23676;SDS011;31493;49.058;12.190;2023-08-20T12:02:02;6.32;;;4.75;;
23676;SDS011;31493;49.058;12.190;2023-08-20T12:04:30;7.57;;;5.00;;
23676;SDS011;31493;49.058;12.190;2023-08-20T12:07:01;7.05;;;5.05;;
23676;SDS011;31493;49.058;12.190;2023-08-20T12:09:30;8.73;;;4.80;;
23676;SDS011;31493;49.058;12.190;2023-08-20T12:11:59;8.32;;;4.95;;
23676;SDS011;31493;49.058;12.190;2023-08-20T12:14:26;6.72;;;4.93;;
23676;SDS011;31493;49.058;12.190;2023-08-20T12:16:54;8.23;;;4.68;;
23676;SDS011;31493;49.058;12.190;2023-08-20T12:19:21;7.75;;;4.32;;
23676;SDS011;31493;49.058;12.190;2023-08-20T12:21:49;5.95;;;4.53;;
23676;SDS011;31493;49.058;12.190;2023-08-20T12:24:16;7.90;;;5.03;;
23676;SDS011;31493;49.058;12.190;2023-08-20T12:29:12;7.15;;;5.05;;
23676;SDS011;31493;49.058;12.190;2023-08-20T12:34:07;5.28;;;4.63;;
23676;SDS011;31493;49.058;12.190;2023-08-20T12:36:34;8.13;;;4.93;;
23676;SDS011;31493;49.058;12.190;2023-08-20T12:39:02;5.40;;;4.57;;
23676;SDS011;31493;49.058;12.190;2023-08-20T12:41:30;8.13;;;4.82;;
23676;SDS011;31493;49.058;12.190;2023-08-20T12:43:57;9.65;;;5.05;;
23676;SDS011;31493;49.058;12.190;2023-08-20T12:46:25;9.05;;;4.60;;
23676;SDS011;31493;49.058;12.190;2023-08-20T12:51:19;6.20;;;4.60;;
23676;SDS011;31493;49.058;12.190;2023-08-20T12:53:47;8.88;;;4.50;;
23676;SDS011;31493;49.058;12.190;2023-08-20T12:56:14;7.88;;;4.68;;
23676;SDS011;31493;49.058;12.190;2023-08-20T12:58:42;5.00;;;4.50;;
23676;SDS011;31493;49.058;12.190;2023-08-20T13:01:09;5.93;;;4.60;;
23676;SDS011;31493;49.058;12.190;2023-08-20T13:03:38;6.50;;;4.43;;
23676;SDS011;31493;49.058;12.190;2023-08-20T13:06:05;9.98;;;5.05;;
23676;SDS011;31493;49.058;12.190;2023-08-20T13:08:33;11.10;;;5.07;;
23676;SDS011;31493;49.058;12.190;2023-08-20T13:11:00;5.63;;;4.43;;
23676;SDS011;31493;49.058;12.190;2023-08-20T13:13:29;8.60;;;4.97;;
23676;SDS011;31493;49.058;12.190;2023-08-20T13:15:59;12.63;;;4.63;;
23676;SDS011;31493;49.058;12.190;2023-08-20T13:18:28;8.52;;;5.00;;
23676;SDS011;31493;49.058;12.190;2023-08-20T13:20:56;11.23;;;4.88;;
23676;SDS011;31493;49.058;12.190;2023-08-20T13:25:50;9.00;;;5.00;;
23676;SDS011;31493;49.058;12.190;2023-08-20T13:28:17;6.82;;;4.97;;
23676;SDS011;31493;49.058;12.190;2023-08-20T13:30:44;9.15;;;4.68;;
23676;SDS011;31493;49.058;12.190;2023-08-20T13:33:12;13.03;;;5.00;;
23676;SDS011;31493;49.058;12.190;2023-08-20T13:35:40;6.43;;;4.65;;
23676;SDS011;31493;49.058;12.190;2023-08-20T13:38:08;5.63;;;4.70;;
23676;SDS011;31493;49.058;12.190;2023-08-20T13:43:02;7.70;;;4.53;;
23676;SDS011;31493;49.058;12.190;2023-08-20T13:45:29;5.57;;;4.72;;
23676;SDS011;31493;49.058;12.190;2023-08-20T13:47:56;8.57;;;4.97;;
23676;SDS011;31493;49.058;12.190;2023-08-20T13:50:23;7.13;;;4.47;;
23676;SDS011;31493;49.058;12.190;2023-08-20T13:52:51;9.73;;;4.68;;
23676;SDS011;31493;49.058;12.190;2023-08-20T13:55:19;6.60;;;4.57;;
23676;SDS011;31493;49.058;12.190;2023-08-20T13:57:46;9.27;;;5.28;;
23676;SDS011;31493;49.058;12.190;2023-08-20T14:00:14;5.40;;;4.63;;
23676;SDS011;31493;49.058;12.190;2023-08-20T14:02:41;5.87;;;4.50;;
23676;SDS011;31493;49.058;12.190;2023-08-20T14:05:08;7.10;;;4.68;;
23676;SDS011;31493;49.058;12.190;2023-08-20T14:07:35;6.78;;;4.80;;
23676;SDS011;31493;49.058;12.190;2023-08-20T14:10:03;8.02;;;4.68;;
23676;SDS011;31493;49.058;12.190;2023-08-20T14:12:32;7.75;;;4.20;;
23676;SDS011;31493;49.058;12.190;2023-08-20T14:15:00;6.95;;;4.60;;
23676;SDS011;31493;49.058;12.190;2023-08-20T14:17:27;6.05;;;4.50;;
23676;SDS011;31493;49.058;12.190;2023-08-20T14:19:56;11.70;;;4.90;;
23676;SDS011;31493;49.058;12.190;2023-08-20T14:22:23;8.32;;;4.75;;
23676;SDS011;31493;49.058;12.190;2023-08-20T14:24:50;9.50;;;4.90;;
23676;SDS011;31493;49.058;12.190;2023-08-20T14:27:17;8.20;;;4.40;;
23676;SDS011;31493;49.058;12.190;2023-08-20T14:29:45;9.85;;;4.95;;
23676;SDS011;31493;49.058;12.190;2023-08-20T14:34:39;6.20;;;4.40;;
23676;SDS011;31493;49.058;12.190;2023-08-20T14:37:06;5.68;;;5.03;;
23676;SDS011;31493;49.058;12.190;2023-08-20T14:39:35;6.15;;;4.82;;
23676;SDS011;31493;49.058;12.190;2023-08-20T14:42:02;5.57;;;4.65;;
23676;SDS011;31493;49.058;12.190;2023-08-20T14:44:29;7.33;;;4.67;;
23676;SDS011;31493;49.058;12.190;2023-08-20T14:46:58;6.80;;;4.75;;
23676;SDS011;31493;49.058;12.190;2023-08-20T14:51:52;5.22;;;4.72;;
23676;SDS011;31493;49.058;12.190;2023-08-20T14:54:20;11.73;;;4.67;;
23676;SDS011;31493;49.058;12.190;2023-08-20T14:56:47;10.35;;;4.63;;
23676;SDS011;31493;49.058;12.190;2023-08-20T14:59:14;7.70;;;4.45;;
23676;SDS011;31493;49.058;12.190;2023-08-20T15:01:41;12.90;;;4.53;;
23676;SDS011;31493;49.058;12.190;2023-08-20T15:04:09;6.80;;;4.88;;
23676;SDS011;31493;49.058;12.190;2023-08-20T15:06:36;7.95;;;4.47;;
23676;SDS011;31493;49.058;12.190;2023-08-20T15:09:03;8.50;;;4.65;;
23676;SDS011;31493;49.058;12.190;2023-08-20T15:11:31;7.30;;;4.77;;
23676;SDS011;31493;49.058;12.190;2023-08-20T15:13:58;5.85;;;4.03;;
23676;SDS011;31493;49.058;12.190;2023-08-20T15:16:25;5.85;;;4.30;;
23676;SDS011;31493;49.058;12.190;2023-08-20T15:18:52;8.35;;;4.60;;
23676;SDS011;31493;49.058;12.190;2023-08-20T15:21:20;5.35;;;4.75;;
23676;SDS011;31493;49.058;12.190;2023-08-20T15:23:47;7.72;;;4.55;;